sensor_id;sensor_type;location;lat;lon;timestamp;pressure;altitude;pressure_sealevel;temperature;humidity
46430;BME280;32131;53.454;-6.180;2022-07-21T00:15:48;102357.34;;;16.72;57.25
46430;BME280;32131;53.454;-6.180;2022-07-21T00:19:08;102354.75;;;16.72;57.38
46430;BME280;32131;53.454;-6.180;2022-07-21T00:22:05;102351.22;;;16.70;57.20
46430;BME280;32131;53.454;-6.180;2022-07-21T00:35:09;102363.16;;;16.55;56.80
46430;BME280;32131;53.454;-6.180;2022-07-21T00:37:52;102373.47;;;16.47;57.19
46430;BME280;32131;53.454;-6.180;2022-07-21T00:40:25;102380.41;;;16.47;57.33
46430;BME280;32131;53.454;-6.180;2022-07-21T00:43:15;102363.94;;;16.49;57.30
46430;BME280;32131;53.454;-6.180;2022-07-21T00:50:05;102375.88;;;16.37;57.42
46430;BME280;32131;53.454;-6.180;2022-07-21T00:53:24;102374.97;;;16.34;57.50
46430;BME280;32131;53.454;-6.180;2022-07-21T00:59:53;102369.75;;;16.34;57.42
46430;BME280;32131;53.454;-6.180;2022-07-21T01:03:05;102374.03;;;16.31;57.58
46430;BME280;32131;53.454;-6.180;2022-07-21T01:05:57;102366.16;;;16.26;57.66
46430;BME280;32131;53.454;-6.180;2022-07-21T01:20:50;102364.38;;;16.24;57.40
46430;BME280;32131;53.454;-6.180;2022-07-21T01:32:38;102369.41;;;16.14;57.24
46430;BME280;32131;53.454;-6.180;2022-07-21T01:35:13;102376.47;;;16.20;57.00
46430;BME280;32131;53.454;-6.180;2022-07-21T01:41:06;102368.63;;;16.18;56.56
46430;BME280;32131;53.454;-6.180;2022-07-21T01:45:25;102373.78;;;16.15;56.46
46430;BME280;32131;53.454;-6.180;2022-07-21T01:47:40;102365.94;;;16.14;56.62
46430;BME280;32131;53.454;-6.180;2022-07-21T01:50:16;102366.81;;;16.14;56.83
46430;BME280;32131;53.454;-6.180;2022-07-21T01:52:47;102368.50;;;16.12;56.92
46430;BME280;32131;53.454;-6.180;2022-07-21T01:55:23;102366.72;;;16.10;57.10
46430;BME280;32131;53.454;-6.180;2022-07-21T01:58:17;102369.31;;;16.08;57.22
46430;BME280;32131;53.454;-6.180;2022-07-21T02:02:57;102368.47;;;16.09;57.11
46430;BME280;32131;53.454;-6.180;2022-07-21T02:03:52;102362.25;;;16.02;57.05
46430;BME280;32131;53.454;-6.180;2022-07-21T02:06:39;102357.03;;;16.01;57.23
46430;BME280;32131;53.454;-6.180;2022-07-21T02:15:40;102350.06;;;16.01;57.06
46430;BME280;32131;53.454;-6.180;2022-07-21T02:18:48;102354.44;;;16.02;56.83
46430;BME280;32131;53.454;-6.180;2022-07-21T02:21:23;102367.47;;;16.02;56.74
46430;BME280;32131;53.454;-6.180;2022-07-21T02:24:48;102367.34;;;15.96;56.68
46430;BME280;32131;53.454;-6.180;2022-07-21T02:28:21;102361.22;;;15.94;56.63
46430;BME280;32131;53.454;-6.180;2022-07-21T02:34:08;102375.72;;;15.83;56.93
46430;BME280;32131;53.454;-6.180;2022-07-21T02:36:57;102379.34;;;15.86;56.87
46430;BME280;32131;53.454;-6.180;2022-07-21T02:42:53;102375.69;;;15.80;56.93
46430;BME280;32131;53.454;-6.180;2022-07-21T02:48:56;102374.66;;;15.71;57.50
46430;BME280;32131;53.454;-6.180;2022-07-21T02:51:30;102379.97;;;15.76;57.59
46430;BME280;32131;53.454;-6.180;2022-07-21T02:57:45;102384.16;;;15.69;58.14
46430;BME280;32131;53.454;-6.180;2022-07-21T03:00:38;102403.22;;;15.68;58.40
46430;BME280;32131;53.454;-6.180;2022-07-21T03:03:30;102398.84;;;15.66;58.55
46430;BME280;32131;53.454;-6.180;2022-07-21T03:06:31;102394.44;;;15.63;58.72
46430;BME280;32131;53.454;-6.180;2022-07-21T03:09:08;102392.81;;;15.68;58.58
46430;BME280;32131;53.454;-6.180;2022-07-21T03:15:35;102397.91;;;15.62;58.94
46430;BME280;32131;53.454;-6.180;2022-07-21T03:22:17;102401.16;;;15.52;59.90
46430;BME280;32131;53.454;-6.180;2022-07-21T03:25:06;102402.78;;;15.47;60.40
46430;BME280;32131;53.454;-6.180;2022-07-21T03:27:53;102395.03;;;15.50;60.28
46430;BME280;32131;53.454;-6.180;2022-07-21T03:34:08;102393.13;;;15.41;61.31
46430;BME280;32131;53.454;-6.180;2022-07-21T03:37:12;102390.47;;;15.39;61.87
46430;BME280;32131;53.454;-6.180;2022-07-21T03:40:01;102390.31;;;15.33;62.48
46430;BME280;32131;53.454;-6.180;2022-07-21T03:42:52;102386.84;;;15.31;63.02
46430;BME280;32131;53.454;-6.180;2022-07-21T03:46:13;102382.47;;;15.30;62.93
46430;BME280;32131;53.454;-6.180;2022-07-21T03:49:02;102387.63;;;15.29;63.28
46430;BME280;32131;53.454;-6.180;2022-07-21T03:54:47;102386.75;;;15.28;63.91
46430;BME280;32131;53.454;-6.180;2022-07-21T04:01:26;102394.97;;;15.07;65.66
46430;BME280;32131;53.454;-6.180;2022-07-21T04:04:21;102404.19;;;14.94;66.47
46430;BME280;32131;53.454;-6.180;2022-07-21T04:10:33;102397.94;;;14.86;66.90
46430;BME280;32131;53.454;-6.180;2022-07-21T04:13:09;102402.22;;;14.84;67.09
46430;BME280;32131;53.454;-6.180;2022-07-21T04:15:44;102407.41;;;14.84;67.17
46430;BME280;32131;53.454;-6.180;2022-07-21T04:18:49;102400.53;;;14.86;67.17
46430;BME280;32131;53.454;-6.180;2022-07-21T04:21:32;102399.56;;;14.81;67.86
46430;BME280;32131;53.454;-6.180;2022-07-21T04:24:55;102412.34;;;14.73;68.07
46430;BME280;32131;53.454;-6.180;2022-07-21T04:27:42;102403.72;;;14.74;68.07
46430;BME280;32131;53.454;-6.180;2022-07-21T04:30:55;102403.50;;;14.66;68.50
46430;BME280;32131;53.454;-6.180;2022-07-21T04:33:37;102406.09;;;14.66;68.65
46430;BME280;32131;53.454;-6.180;2022-07-21T04:36:36;102402.66;;;14.67;68.52
46430;BME280;32131;53.454;-6.180;2022-07-21T04:39:25;102397.63;;;14.73;68.27
46430;BME280;32131;53.454;-6.180;2022-07-21T04:42:00;102402.09;;;14.79;68.02
46430;BME280;32131;53.454;-6.180;2022-07-21T04:51:40;102404.00;;;14.86;67.61
46430;BME280;32131;53.454;-6.180;2022-07-21T04:54:25;102409.94;;;14.81;67.81
46430;BME280;32131;53.454;-6.180;2022-07-21T04:57:16;102407.16;;;14.73;68.15
46430;BME280;32131;53.454;-6.180;2022-07-21T04:59:49;102401.00;;;14.69;68.45
46430;BME280;32131;53.454;-6.180;2022-07-21T05:09:48;102415.47;;;14.59;69.01
46430;BME280;32131;53.454;-6.180;2022-07-21T05:13:00;102416.22;;;14.57;69.38
46430;BME280;32131;53.454;-6.180;2022-07-21T05:15:50;102412.56;;;14.49;69.71
46430;BME280;32131;53.454;-6.180;2022-07-21T05:18:48;102410.03;;;14.50;69.53
46430;BME280;32131;53.454;-6.180;2022-07-21T05:21:17;102417.03;;;14.54;69.49
46430;BME280;32131;53.454;-6.180;2022-07-21T05:24:03;102406.75;;;14.59;69.44
46430;BME280;32131;53.454;-6.180;2022-07-21T05:26:45;102406.19;;;14.69;69.21
46430;BME280;32131;53.454;-6.180;2022-07-21T05:29:36;102405.28;;;14.67;69.22
46430;BME280;32131;53.454;-6.180;2022-07-21T05:32:16;102400.81;;;14.63;69.43
46430;BME280;32131;53.454;-6.180;2022-07-21T05:34:54;102411.47;;;14.72;69.13
46430;BME280;32131;53.454;-6.180;2022-07-21T05:37:22;102395.22;;;14.81;68.85
46430;BME280;32131;53.454;-6.180;2022-07-21T05:40:03;102409.09;;;14.82;68.73
46430;BME280;32131;53.454;-6.180;2022-07-21T05:42:41;102415.22;;;14.84;68.59
46430;BME280;32131;53.454;-6.180;2022-07-21T05:45:13;102406.56;;;14.85;68.68
46430;BME280;32131;53.454;-6.180;2022-07-21T05:47:46;102414.63;;;14.96;68.34
46430;BME280;32131;53.454;-6.180;2022-07-21T05:50:15;102417.19;;;14.94;68.45
46430;BME280;32131;53.454;-6.180;2022-07-21T05:52:44;102421.53;;;14.93;68.46
46430;BME280;32131;53.454;-6.180;2022-07-21T05:55:12;102416.34;;;14.93;68.51
46430;BME280;32131;53.454;-6.180;2022-07-21T05:57:42;102418.13;;;14.96;68.56
46430;BME280;32131;53.454;-6.180;2022-07-21T06:00:13;102419.09;;;15.01;68.26
46430;BME280;32131;53.454;-6.180;2022-07-21T06:02:43;102425.13;;;14.99;68.49
46430;BME280;32131;53.454;-6.180;2022-07-21T06:05:12;102417.38;;;15.02;68.48
46430;BME280;32131;53.454;-6.180;2022-07-21T06:07:40;102429.84;;;15.17;68.13
46430;BME280;32131;53.454;-6.180;2022-07-21T06:10:09;102430.66;;;15.14;68.15
46430;BME280;32131;53.454;-6.180;2022-07-21T06:12:47;102426.38;;;15.15;68.21
46430;BME280;32131;53.454;-6.180;2022-07-21T06:15:15;102431.66;;;15.19;68.11
46430;BME280;32131;53.454;-6.180;2022-07-21T06:20:55;102430.19;;;15.31;67.84
46430;BME280;32131;53.454;-6.180;2022-07-21T06:29:05;102432.25;;;15.46;67.51
46430;BME280;32131;53.454;-6.180;2022-07-21T06:31:34;102427.88;;;15.45;67.56
46430;BME280;32131;53.454;-6.180;2022-07-21T06:34:04;102430.81;;;15.60;67.20
46430;BME280;32131;53.454;-6.180;2022-07-21T06:36:32;102432.84;;;15.74;66.88
46430;BME280;32131;53.454;-6.180;2022-07-21T06:39:16;102434.97;;;15.90;66.54
46430;BME280;32131;53.454;-6.180;2022-07-21T06:42:04;102444.97;;;16.14;65.87
46430;BME280;32131;53.454;-6.180;2022-07-21T06:44:36;102445.88;;;16.15;65.62
46430;BME280;32131;53.454;-6.180;2022-07-21T06:47:24;102458.28;;;16.28;65.26
46430;BME280;32131;53.454;-6.180;2022-07-21T06:49:56;102454.06;;;16.35;65.06
46430;BME280;32131;53.454;-6.180;2022-07-21T06:52:31;102454.41;;;16.54;64.40
46430;BME280;32131;53.454;-6.180;2022-07-21T06:55:03;102454.69;;;16.71;63.80
46430;BME280;32131;53.454;-6.180;2022-07-21T06:57:32;102461.19;;;16.94;63.10
46430;BME280;32131;53.454;-6.180;2022-07-21T07:00:12;102453.75;;;17.19;62.63
46430;BME280;32131;53.454;-6.180;2022-07-21T07:03:11;102456.72;;;17.44;61.95
46430;BME280;32131;53.454;-6.180;2022-07-21T07:06:04;102455.22;;;17.62;61.45
46430;BME280;32131;53.454;-6.180;2022-07-21T07:08:44;102457.97;;;17.72;60.93
46430;BME280;32131;53.454;-6.180;2022-07-21T07:12:07;102462.56;;;17.90;59.93
46430;BME280;32131;53.454;-6.180;2022-07-21T07:15:07;102456.66;;;18.05;59.26
46430;BME280;32131;53.454;-6.180;2022-07-21T07:17:37;102456.88;;;18.24;58.34
46430;BME280;32131;53.454;-6.180;2022-07-21T07:20:06;102460.53;;;18.43;57.96
46430;BME280;32131;53.454;-6.180;2022-07-21T07:22:36;102459.91;;;18.67;57.26
46430;BME280;32131;53.454;-6.180;2022-07-21T07:25:07;102450.44;;;18.79;56.76
46430;BME280;32131;53.454;-6.180;2022-07-21T07:27:35;102458.25;;;18.74;56.51
46430;BME280;32131;53.454;-6.180;2022-07-21T07:30:07;102457.97;;;18.46;56.77
46430;BME280;32131;53.454;-6.180;2022-07-21T07:32:38;102451.69;;;18.27;56.98
46430;BME280;32131;53.454;-6.180;2022-07-21T07:35:07;102458.47;;;18.10;57.08
46430;BME280;32131;53.454;-6.180;2022-07-21T07:37:43;102462.72;;;18.03;57.38
46430;BME280;32131;53.454;-6.180;2022-07-21T07:40:15;102466.28;;;18.08;57.06
46430;BME280;32131;53.454;-6.180;2022-07-21T07:42:47;102461.97;;;18.12;56.71
46430;BME280;32131;53.454;-6.180;2022-07-21T07:45:38;102463.75;;;18.13;56.44
46430;BME280;32131;53.454;-6.180;2022-07-21T07:48:09;102467.81;;;17.92;56.95
46430;BME280;32131;53.454;-6.180;2022-07-21T07:50:37;102476.38;;;17.80;57.15
46430;BME280;32131;53.454;-6.180;2022-07-21T07:53:11;102475.34;;;17.69;57.49
46430;BME280;32131;53.454;-6.180;2022-07-21T07:55:40;102475.47;;;17.78;57.25
46430;BME280;32131;53.454;-6.180;2022-07-21T07:58:19;102472.31;;;18.02;56.61
46430;BME280;32131;53.454;-6.180;2022-07-21T08:00:47;102472.84;;;18.53;55.70
46430;BME280;32131;53.454;-6.180;2022-07-21T08:03:39;102482.03;;;19.00;54.53
46430;BME280;32131;53.454;-6.180;2022-07-21T08:06:19;102474.41;;;19.36;53.39
46430;BME280;32131;53.454;-6.180;2022-07-21T08:08:47;102481.56;;;19.65;52.97
46430;BME280;32131;53.454;-6.180;2022-07-21T08:11:15;102479.06;;;19.87;52.27
46430;BME280;32131;53.454;-6.180;2022-07-21T08:13:48;102470.38;;;19.94;52.06
46430;BME280;32131;53.454;-6.180;2022-07-21T08:16:19;102475.66;;;20.06;51.92
46430;BME280;32131;53.454;-6.180;2022-07-21T08:18:49;102481.00;;;20.34;51.30
46430;BME280;32131;53.454;-6.180;2022-07-21T08:21:17;102483.59;;;20.28;50.37
46430;BME280;32131;53.454;-6.180;2022-07-21T08:23:46;102479.22;;;20.25;50.04
46430;BME280;32131;53.454;-6.180;2022-07-21T08:26:14;102481.81;;;20.18;50.42
46430;BME280;32131;53.454;-6.180;2022-07-21T08:28:42;102480.88;;;19.99;51.01
46430;BME280;32131;53.454;-6.180;2022-07-21T08:31:10;102477.25;;;19.75;51.53
46430;BME280;32131;53.454;-6.180;2022-07-21T08:33:38;102484.09;;;19.45;51.73
46430;BME280;32131;53.454;-6.180;2022-07-21T08:36:08;102481.34;;;19.25;52.26
46430;BME280;32131;53.454;-6.180;2022-07-21T08:38:36;102485.63;;;19.12;52.70
46430;BME280;32131;53.454;-6.180;2022-07-21T08:41:04;102483.78;;;19.00;53.05
46430;BME280;32131;53.454;-6.180;2022-07-21T08:43:34;102489.88;;;18.99;52.97
46430;BME280;32131;53.454;-6.180;2022-07-21T08:46:02;102484.66;;;19.02;53.29
46430;BME280;32131;53.454;-6.180;2022-07-21T08:48:30;102489.06;;;19.06;53.32
46430;BME280;32131;53.454;-6.180;2022-07-21T08:50:58;102490.81;;;19.10;53.27
46430;BME280;32131;53.454;-6.180;2022-07-21T08:53:30;102496.16;;;19.21;53.35
46430;BME280;32131;53.454;-6.180;2022-07-21T08:55:58;102495.38;;;19.36;53.23
46430;BME280;32131;53.454;-6.180;2022-07-21T08:58:27;102491.13;;;19.51;53.13
46430;BME280;32131;53.454;-6.180;2022-07-21T09:00:55;102488.50;;;19.54;53.17
46430;BME280;32131;53.454;-6.180;2022-07-21T09:03:27;102490.22;;;19.50;53.26
46430;BME280;32131;53.454;-6.180;2022-07-21T09:06:00;102492.91;;;19.59;52.74
46430;BME280;32131;53.454;-6.180;2022-07-21T09:08:33;102488.59;;;19.74;52.27
46430;BME280;32131;53.454;-6.180;2022-07-21T09:11:12;102498.34;;;19.95;52.06
46430;BME280;32131;53.454;-6.180;2022-07-21T09:13:40;102493.13;;;20.10;51.62
46430;BME280;32131;53.454;-6.180;2022-07-21T09:16:09;102494.97;;;20.27;51.31
46430;BME280;32131;53.454;-6.180;2022-07-21T09:18:49;102495.84;;;20.45;50.34
46430;BME280;32131;53.454;-6.180;2022-07-21T09:21:18;102502.00;;;20.51;49.83
46430;BME280;32131;53.454;-6.180;2022-07-21T09:23:48;102498.50;;;20.51;50.05
46430;BME280;32131;53.454;-6.180;2022-07-21T09:26:19;102505.50;;;20.42;49.88
46430;BME280;32131;53.454;-6.180;2022-07-21T09:28:51;102506.34;;;20.43;49.50
46430;BME280;32131;53.454;-6.180;2022-07-21T09:31:22;102502.88;;;20.55;49.03
46430;BME280;32131;53.454;-6.180;2022-07-21T09:33:56;102501.19;;;20.76;48.23
46430;BME280;32131;53.454;-6.180;2022-07-21T09:36:24;102500.31;;;20.80;48.01
46430;BME280;32131;53.454;-6.180;2022-07-21T09:38:55;102509.94;;;20.90;47.66
46430;BME280;32131;53.454;-6.180;2022-07-21T09:41:30;102501.22;;;20.94;47.58
46430;BME280;32131;53.454;-6.180;2022-07-21T09:44:02;102499.44;;;21.04;47.42
46430;BME280;32131;53.454;-6.180;2022-07-21T09:46:34;102507.31;;;20.90;47.36
46430;BME280;32131;53.454;-6.180;2022-07-21T09:49:08;102495.94;;;20.79;47.35
46430;BME280;32131;53.454;-6.180;2022-07-21T09:52:00;102495.91;;;20.72;47.38
46430;BME280;32131;53.454;-6.180;2022-07-21T09:54:30;102504.69;;;20.96;46.93
46430;BME280;32131;53.454;-6.180;2022-07-21T09:56:58;102492.44;;;21.08;46.92
46430;BME280;32131;53.454;-6.180;2022-07-21T09:59:34;102508.22;;;21.11;46.60
46430;BME280;32131;53.454;-6.180;2022-07-21T10:02:25;102504.69;;;21.01;46.52
46430;BME280;32131;53.454;-6.180;2022-07-21T10:04:59;102496.81;;;21.04;45.96
46430;BME280;32131;53.454;-6.180;2022-07-21T10:07:35;102489.81;;;21.04;45.90
46430;BME280;32131;53.454;-6.180;2022-07-21T10:10:06;102487.19;;;21.14;45.97
46430;BME280;32131;53.454;-6.180;2022-07-21T10:12:36;102487.16;;;21.35;45.16
46430;BME280;32131;53.454;-6.180;2022-07-21T10:15:04;102483.63;;;21.49;45.03
46430;BME280;32131;53.454;-6.180;2022-07-21T10:17:33;102481.00;;;21.40;45.00
46430;BME280;32131;53.454;-6.180;2022-07-21T10:20:05;102485.44;;;21.16;45.16
46430;BME280;32131;53.454;-6.180;2022-07-21T10:22:40;102488.06;;;20.86;45.48
46430;BME280;32131;53.454;-6.180;2022-07-21T10:25:14;102490.66;;;20.63;46.12
46430;BME280;32131;53.454;-6.180;2022-07-21T10:30:42;102488.88;;;20.56;46.32
46430;BME280;32131;53.454;-6.180;2022-07-21T10:33:14;102476.72;;;20.86;45.03
46430;BME280;32131;53.454;-6.180;2022-07-21T10:35:44;102474.00;;;21.29;44.36
46430;BME280;32131;53.454;-6.180;2022-07-21T10:38:27;102468.63;;;21.79;43.95
46430;BME280;32131;53.454;-6.180;2022-07-21T10:41:01;102474.66;;;22.04;42.84
46430;BME280;32131;53.454;-6.180;2022-07-21T10:43:40;102476.25;;;22.33;42.32
46430;BME280;32131;53.454;-6.180;2022-07-21T10:49:06;102463.56;;;22.89;40.89
46430;BME280;32131;53.454;-6.180;2022-07-21T10:51:36;102460.72;;;23.16;40.16
46430;BME280;32131;53.454;-6.180;2022-07-21T10:54:28;102466.41;;;23.60;39.65
46430;BME280;32131;53.454;-6.180;2022-07-21T11:03:01;102458.94;;;23.18;39.03
46430;BME280;32131;53.454;-6.180;2022-07-21T11:05:34;102463.41;;;23.08;39.23
46430;BME280;32131;53.454;-6.180;2022-07-21T11:08:17;102468.69;;;23.06;39.26
46430;BME280;32131;53.454;-6.180;2022-07-21T11:10:50;102460.66;;;23.22;39.13
46430;BME280;32131;53.454;-6.180;2022-07-21T11:13:22;102440.06;;;23.57;38.70
46430;BME280;32131;53.454;-6.180;2022-07-21T11:15:56;102449.56;;;23.68;37.94
46430;BME280;32131;53.454;-6.180;2022-07-21T11:18:27;102455.03;;;23.54;38.45
46430;BME280;32131;53.454;-6.180;2022-07-21T11:21:06;102445.66;;;23.29;38.49
46430;BME280;32131;53.454;-6.180;2022-07-21T11:23:35;102447.63;;;23.05;38.42
46430;BME280;32131;53.454;-6.180;2022-07-21T11:26:06;102460.97;;;22.88;38.96
46430;BME280;32131;53.454;-6.180;2022-07-21T11:28:38;102465.50;;;22.69;38.97
46430;BME280;32131;53.454;-6.180;2022-07-21T11:31:10;102447.91;;;22.77;38.99
46430;BME280;32131;53.454;-6.180;2022-07-21T11:33:59;102455.59;;;22.99;38.73
46430;BME280;32131;53.454;-6.180;2022-07-21T11:36:34;102447.19;;;23.48;38.16
46430;BME280;32131;53.454;-6.180;2022-07-21T11:39:04;102453.13;;;24.33;36.90
46430;BME280;32131;53.454;-6.180;2022-07-21T11:41:44;102445.78;;;25.05;35.94
46430;BME280;32131;53.454;-6.180;2022-07-21T11:44:21;102438.13;;;25.37;35.21
46430;BME280;32131;53.454;-6.180;2022-07-21T11:46:51;102444.69;;;25.16;35.05
46430;BME280;32131;53.454;-6.180;2022-07-21T11:49:22;102449.69;;;24.83;34.96
46430;BME280;32131;53.454;-6.180;2022-07-21T11:51:53;102449.69;;;24.83;35.44
46430;BME280;32131;53.454;-6.180;2022-07-21T11:54:25;102449.88;;;24.72;35.44
46430;BME280;32131;53.454;-6.180;2022-07-21T11:56:54;102457.03;;;24.63;35.50
46430;BME280;32131;53.454;-6.180;2022-07-21T11:59:23;102452.88;;;24.48;35.91
46430;BME280;32131;53.454;-6.180;2022-07-21T12:04:41;102450.56;;;24.85;35.58
46430;BME280;32131;53.454;-6.180;2022-07-21T12:07:13;102443.53;;;24.84;35.21
46430;BME280;32131;53.454;-6.180;2022-07-21T12:09:46;102441.78;;;24.84;35.69
46430;BME280;32131;53.454;-6.180;2022-07-21T12:12:30;102448.75;;;24.87;35.31
46430;BME280;32131;53.454;-6.180;2022-07-21T12:15:13;102445.63;;;24.63;35.36
46430;BME280;32131;53.454;-6.180;2022-07-21T12:17:43;102448.47;;;24.49;35.92
46430;BME280;32131;53.454;-6.180;2022-07-21T12:23:17;102443.81;;;24.07;36.68
46430;BME280;32131;53.454;-6.180;2022-07-21T12:25:48;102430.81;;;23.95;36.48
46430;BME280;32131;53.454;-6.180;2022-07-21T12:31:09;102433.69;;;23.75;36.39
46430;BME280;32131;53.454;-6.180;2022-07-21T12:33:42;102433.59;;;23.84;36.46
46430;BME280;32131;53.454;-6.180;2022-07-21T12:36:34;102440.31;;;24.07;36.38
46430;BME280;32131;53.454;-6.180;2022-07-21T12:39:28;102434.97;;;24.10;35.81
46430;BME280;32131;53.454;-6.180;2022-07-21T12:42:29;102429.44;;;24.30;36.00
46430;BME280;32131;53.454;-6.180;2022-07-21T12:44:58;102433.66;;;24.40;35.90
46430;BME280;32131;53.454;-6.180;2022-07-21T12:47:29;102430.13;;;24.41;35.78
46430;BME280;32131;53.454;-6.180;2022-07-21T12:50:04;102421.22;;;24.47;35.67
46430;BME280;32131;53.454;-6.180;2022-07-21T12:52:44;102427.31;;;24.51;35.76
46430;BME280;32131;53.454;-6.180;2022-07-21T12:55:15;102425.19;;;24.74;35.61
46430;BME280;32131;53.454;-6.180;2022-07-21T12:57:45;102427.75;;;24.80;35.57
46430;BME280;32131;53.454;-6.180;2022-07-21T13:00:15;102423.31;;;24.81;35.36
46430;BME280;32131;53.454;-6.180;2022-07-21T13:02:47;102428.72;;;24.75;35.01
46430;BME280;32131;53.454;-6.180;2022-07-21T13:05:21;102412.25;;;25.09;35.06
46430;BME280;32131;53.454;-6.180;2022-07-21T13:07:51;102416.50;;;25.16;34.48
46430;BME280;32131;53.454;-6.180;2022-07-21T13:10:27;102417.06;;;24.87;34.67
46430;BME280;32131;53.454;-6.180;2022-07-21T13:12:57;102414.75;;;24.65;35.10
46430;BME280;32131;53.454;-6.180;2022-07-21T13:15:27;102413.34;;;24.45;35.74
46430;BME280;32131;53.454;-6.180;2022-07-21T13:17:56;102419.44;;;24.47;36.00
46430;BME280;32131;53.454;-6.180;2022-07-21T13:20:24;102409.00;;;24.41;35.72
46430;BME280;32131;53.454;-6.180;2022-07-21T13:22:53;102408.50;;;24.17;36.00
46430;BME280;32131;53.454;-6.180;2022-07-21T13:25:21;102414.06;;;23.97;36.37
46430;BME280;32131;53.454;-6.180;2022-07-21T13:28:00;102404.63;;;23.79;36.39
46430;BME280;32131;53.454;-6.180;2022-07-21T13:30:28;102401.25;;;23.68;36.79
46430;BME280;32131;53.454;-6.180;2022-07-21T13:32:57;102404.63;;;23.79;36.70
46430;BME280;32131;53.454;-6.180;2022-07-21T13:35:25;102415.88;;;23.91;36.92
46430;BME280;32131;53.454;-6.180;2022-07-21T13:37:55;102402.88;;;23.77;37.04
46430;BME280;32131;53.454;-6.180;2022-07-21T13:40:24;102413.50;;;23.72;36.90
46430;BME280;32131;53.454;-6.180;2022-07-21T13:43:14;102418.63;;;23.84;36.62
46430;BME280;32131;53.454;-6.180;2022-07-21T13:46:04;102418.28;;;24.09;36.39
46430;BME280;32131;53.454;-6.180;2022-07-21T13:48:33;102419.63;;;24.38;36.14
46430;BME280;32131;53.454;-6.180;2022-07-21T13:51:10;102419.44;;;24.47;35.77
46430;BME280;32131;53.454;-6.180;2022-07-21T13:53:39;102415.03;;;24.49;36.08
46430;BME280;32131;53.454;-6.180;2022-07-21T13:56:07;102409.63;;;24.57;35.65
46430;BME280;32131;53.454;-6.180;2022-07-21T13:58:37;102413.84;;;24.69;35.62
46430;BME280;32131;53.454;-6.180;2022-07-21T14:01:07;102409.44;;;24.70;35.67
46430;BME280;32131;53.454;-6.180;2022-07-21T14:03:36;102405.84;;;24.72;35.70
46430;BME280;32131;53.454;-6.180;2022-07-21T14:06:05;102402.75;;;24.99;35.40
46430;BME280;32131;53.454;-6.180;2022-07-21T14:08:33;102407.16;;;25.00;35.64
46430;BME280;32131;53.454;-6.180;2022-07-21T14:11:05;102393.94;;;25.00;35.23
46430;BME280;32131;53.454;-6.180;2022-07-21T14:13:33;102400.63;;;25.18;34.96
46430;BME280;32131;53.454;-6.180;2022-07-21T14:16:06;102387.53;;;25.10;35.01
46430;BME280;32131;53.454;-6.180;2022-07-21T14:18:35;102390.66;;;25.31;34.78
46430;BME280;32131;53.454;-6.180;2022-07-21T14:21:03;102387.44;;;25.16;34.89
46430;BME280;32131;53.454;-6.180;2022-07-21T14:23:32;102392.31;;;24.92;35.53
46430;BME280;32131;53.454;-6.180;2022-07-21T14:26:00;102390.38;;;24.51;35.97
46430;BME280;32131;53.454;-6.180;2022-07-21T14:28:30;102391.31;;;24.48;36.29
46430;BME280;32131;53.454;-6.180;2022-07-21T14:30:58;102381.25;;;24.15;36.69
46430;BME280;32131;53.454;-6.180;2022-07-21T14:33:35;102377.19;;;23.94;37.46
46430;BME280;32131;53.454;-6.180;2022-07-21T14:36:03;102378.38;;;23.70;37.64
46430;BME280;32131;53.454;-6.180;2022-07-21T14:38:31;102378.56;;;23.56;37.81
46430;BME280;32131;53.454;-6.180;2022-07-21T14:41:00;102384.03;;;23.39;38.17
46430;BME280;32131;53.454;-6.180;2022-07-21T14:43:29;102381.38;;;23.42;38.32
46430;BME280;32131;53.454;-6.180;2022-07-21T14:45:57;102379.53;;;23.50;38.28
46430;BME280;32131;53.454;-6.180;2022-07-21T14:48:25;102388.16;;;23.62;38.62
46430;BME280;32131;53.454;-6.180;2022-07-21T14:50:55;102396.81;;;23.71;38.20
46430;BME280;32131;53.454;-6.180;2022-07-21T14:53:23;102387.06;;;23.77;38.36
46430;BME280;32131;53.454;-6.180;2022-07-21T14:55:51;102383.44;;;23.85;38.24
46430;BME280;32131;53.454;-6.180;2022-07-21T14:58:19;102385.13;;;23.90;38.23
46430;BME280;32131;53.454;-6.180;2022-07-21T15:00:47;102398.38;;;23.85;38.35
46430;BME280;32131;53.454;-6.180;2022-07-21T15:03:15;102394.22;;;23.68;38.33
46430;BME280;32131;53.454;-6.180;2022-07-21T15:05:43;102393.47;;;23.59;38.86
46430;BME280;32131;53.454;-6.180;2022-07-21T15:08:15;102389.00;;;23.64;38.87
46430;BME280;32131;53.454;-6.180;2022-07-21T15:10:44;102380.38;;;23.52;38.99
46430;BME280;32131;53.454;-6.180;2022-07-21T15:13:17;102379.66;;;23.39;39.29
46430;BME280;32131;53.454;-6.180;2022-07-21T15:15:49;102378.78;;;23.39;39.00
46430;BME280;32131;53.454;-6.180;2022-07-21T15:18:17;102371.63;;;23.47;38.87
46430;BME280;32131;53.454;-6.180;2022-07-21T15:20:46;102360.69;;;23.78;38.47
46430;BME280;32131;53.454;-6.180;2022-07-21T15:23:18;102366.00;;;23.75;38.29
46430;BME280;32131;53.454;-6.180;2022-07-21T15:25:46;102351.75;;;23.87;38.31
46430;BME280;32131;53.454;-6.180;2022-07-21T15:28:15;102354.06;;;24.12;37.93
46430;BME280;32131;53.454;-6.180;2022-07-21T15:30:43;102358.88;;;24.40;37.63
46430;BME280;32131;53.454;-6.180;2022-07-21T15:33:13;102348.31;;;24.40;37.72
46430;BME280;32131;53.454;-6.180;2022-07-21T15:35:41;102347.63;;;24.30;37.84
46430;BME280;32131;53.454;-6.180;2022-07-21T15:38:10;102343.59;;;24.06;38.31
46430;BME280;32131;53.454;-6.180;2022-07-21T15:40:44;102343.13;;;23.77;38.24
46430;BME280;32131;53.454;-6.180;2022-07-21T15:43:12;102343.44;;;23.54;38.70
46430;BME280;32131;53.454;-6.180;2022-07-21T15:45:41;102347.94;;;23.46;38.95
46430;BME280;32131;53.454;-6.180;2022-07-21T15:48:12;102343.22;;;23.71;38.49
46430;BME280;32131;53.454;-6.180;2022-07-21T15:50:49;102341.47;;;23.68;38.65
46430;BME280;32131;53.454;-6.180;2022-07-21T15:53:21;102332.81;;;23.60;38.90